Kobarid — 3FSM7 — position and weather

sailwx.info

Track history (hours):
 
Tides and Currents Weather Stations Pressure Air Temp Water Temp Dewpoint Dewpoint Depression Visibility Wind Speed Wind Dir Waves Ship Positions

Kobarid

Last reported at 2018-Feb-18 14:45 UTC. Time now 2018-Feb-20 13:38 UTC.
Position N 34°06' E 136°40'.

Length 116 m; draft 7.9 m.

Type: Cargo ship. MMSI: 357239000.

Date/timePositionNaut miles runAvg speedWind from/ knotsBaromVisibWave heightAir tempDewpointWater temp
2018-Feb-18 14:45N 34°06' E 136°40'311.6
2018-Feb-18 14:29N 34°08' E 136°44'3211.7
2018-Feb-18 11:46N 34°28' E 137°13'312.0
2018-Feb-18 11:30N 34°30' E 137°17'2911.1
2018-Feb-18 08:51N 34°34' E 137°52'410.6
2018-Feb-18 08:25N 34°33' E 137°57'10 9.9
2018-Feb-18 07:24N 34°32' E 138°09'4 9.5
2018-Feb-18 06:58N 34°31' E 138°14'610.2
2018-Feb-18 06:22N 34°32' E 138°22'411.0
2018-Feb-18 06:00N 34°32' E 138°26'611.8
2018-Feb-18 05:30N 34°31' E 138°34'611.6
2018-Feb-18 05:00N 34°32' E 138°41'611.6
2018-Feb-18 04:27N 34°32' E 138°48'511.2
2018-Feb-18 04:00N 34°32' E 138°54'710.7
2018-Feb-18 03:24N 34°36' E 139°01'410.9
2018-Feb-18 02:59N 34°39' E 139°04'711.5
2018-Feb-18 02:24N 34°45' E 139°09'611.6
2018-Feb-18 01:54N 34°50' E 139°13'511.1
2018-Feb-18 01:29N 34°54' E 139°16'510.0
2018-Feb-18 00:59N 34°57' E 139°20'510.1
2018-Feb-18 00:30N 34°59' E 139°26'510.1
2018-Feb-18 00:00N 35°01' E 139°32'510.8
2018-Feb-17 23:31N 35°03' E 139°38'5 9.9
2018-Feb-17 23:00N 35°05' E 139°43'510.2
2018-Feb-17 22:30N 35°10' E 139°45'510.1
2018-Feb-17 22:00N 35°15' E 139°46'5 9.9
2018-Feb-17 21:30N 35°19' E 139°43'5 9.6
2018-Feb-17 21:00N 35°24' E 139°43'4 8.1
2018-Feb-17 20:30N 35°28' E 139°42'0 0.6
2018-Feb-17 19:58N 35°28' E 139°42'0 0.0
2018-Feb-17 19:25N 35°28' E 139°42'0 0.0
2018-Feb-17 18:58N 35°28' E 139°42'0 0.0
2018-Feb-17 18:25N 35°28' E 139°42'0 0.0
2018-Feb-17 17:58N 35°28' E 139°42'0 0.0
2018-Feb-17 17:28N 35°28' E 139°42'0 0.0
2018-Feb-17 16:58N 35°28' E 139°42'0 0.0
2018-Feb-17 16:28N 35°28' E 139°42'0 0.0
2018-Feb-17 15:55N 35°28' E 139°42'0 0.0
2018-Feb-17 15:25N 35°28' E 139°42'0 0.0
2018-Feb-17 14:58N 35°28' E 139°42'0 0.0
2018-Feb-17 14:28N 35°28' E 139°42'0 0.0
2018-Feb-17 13:58N 35°28' E 139°42'0 0.0
2018-Feb-17 13:28N 35°28' E 139°42'0 0.0
2018-Feb-17 12:58N 35°28' E 139°42'0 0.0
2018-Feb-17 12:28N 35°28' E 139°42'0 0.0
2018-Feb-17 11:58N 35°28' E 139°42'0 0.0
2018-Feb-17 11:28N 35°28' E 139°42'0 0.0
2018-Feb-17 10:58N 35°28' E 139°42'0 0.0
2018-Feb-17 10:28N 35°28' E 139°42'0 0.0
2018-Feb-17 09:58N 35°28' E 139°42'0 0.0
2018-Feb-17 09:28N 35°28' E 139°42'0 0.0
2018-Feb-17 08:58N 35°28' E 139°42'0 0.0
2018-Feb-17 08:28N 35°28' E 139°42'0 0.0
2018-Feb-17 07:58N 35°28' E 139°42'0 0.0
2018-Feb-17 07:28N 35°28' E 139°42'0 0.0
2018-Feb-17 06:58N 35°28' E 139°42'0 0.0
2018-Feb-17 06:28N 35°28' E 139°42'0 0.0
2018-Feb-17 05:58N 35°28' E 139°42'0 0.0
2018-Feb-17 05:28N 35°28' E 139°42'0 0.0
2018-Feb-17 04:58N 35°28' E 139°42'0 0.0
2018-Feb-17 04:25N 35°28' E 139°42'0 0.0
2018-Feb-17 03:58N 35°28' E 139°42'0 0.0
2018-Feb-17 03:28N 35°28' E 139°42'0 0.0
2018-Feb-17 02:58N 35°28' E 139°42'0 0.0
2018-Feb-17 02:25N 35°28' E 139°42'0 0.0
2018-Feb-17 01:58N 35°28' E 139°42'0 0.0
2018-Feb-17 01:28N 35°28' E 139°42'0 0.0
2018-Feb-17 00:58N 35°28' E 139°42'0 0.0
2018-Feb-17 00:28N 35°28' E 139°42'0 0.0
2018-Feb-16 23:58N 35°28' E 139°42'0 0.0
2018-Feb-16 23:28N 35°28' E 139°42'0 0.0
2018-Feb-16 22:55N 35°28' E 139°42'0 0.0
2018-Feb-16 22:28N 35°28' E 139°42'1 1.4
2018-Feb-16 22:00N 35°28' E 139°42'2 3.1
2018-Feb-16 21:30N 35°26' E 139°43'0 0.0
2018-Feb-16 21:00N 35°26' E 139°43'0 0.1
2018-Feb-16 20:30N 35°26' E 139°43'0 0.1
2018-Feb-16 20:00N 35°26' E 139°43'0 0.0
2018-Feb-16 19:30N 35°26' E 139°43'0 0.1
2018-Feb-16 18:57N 35°26' E 139°43'0 0.0
2018-Feb-16 18:30N 35°26' E 139°43'0 0.0
2018-Feb-16 18:00N 35°26' E 139°43'0 0.1
2018-Feb-16 17:30N 35°26' E 139°43'0 0.0
2018-Feb-16 17:00N 35°26' E 139°43'0 0.0
2018-Feb-16 16:30N 35°26' E 139°43'0 0.1
2018-Feb-16 16:00N 35°26' E 139°43'0 0.1
2018-Feb-16 15:30N 35°26' E 139°43'0 0.6
2018-Feb-16 15:00N 35°26' E 139°43'2 4.9
2018-Feb-16 14:30N 35°23' E 139°43'4 8.1
2018-Feb-16 14:01N 35°19' E 139°43'5 9.5
2018-Feb-16 13:31N 35°16' E 139°47'4 8.1
2018-Feb-16 13:01N 35°12' E 139°47'5 9.8
2018-Feb-16 12:31N 35°07' E 139°46'510.2
2018-Feb-16 12:00N 35°02' E 139°43'611.2
2018-Feb-16 11:29N 34°57' E 139°41'611.5
2018-Feb-16 11:00N 34°51' E 139°38'611.3
2018-Feb-16 10:30N 34°47' E 139°34'811.9
2018-Feb-16 09:53N 34°40' E 139°30'511.9
2018-Feb-16 09:28N 34°37' E 139°25'612.7
2018-Feb-16 09:00N 34°36' E 139°18'612.9
2018-Feb-16 08:30N 34°35' E 139°11'713.4
2018-Feb-16 08:00N 34°33' E 139°03'713.0
2018-Feb-16 07:29N 34°31' E 138°55'812.7
2018-Feb-16 06:51N 34°30' E 138°45'613.3
2018-Feb-16 06:22N 34°29' E 138°38'513.3
2018-Feb-16 06:00N 34°27' E 138°32'813.2
2018-Feb-16 05:24N 34°25' E 138°23'2212.9
2018-Feb-16 03:42N 34°19' E 137°57'312.8
2018-Feb-16 03:28N 34°18' E 137°54'8112.2
2018-Feb-15 20:51N 33°43' E 136°26'5710.2
2018-Feb-15 15:18N 33°32' E 135°19'1212.9
2018-Feb-15 14:24N 33°38' E 135°07'613.0
2018-Feb-15 13:57N 33°43' E 135°03'613.3
2018-Feb-15 13:30N 33°48' E 134°59'612.7
2018-Feb-15 13:01N 33°54' E 134°57'713.2
2018-Feb-15 12:30N 34°00' E 134°58'713.1
2018-Feb-15 12:00N 34°07' E 134°58'612.8
2018-Feb-15 11:31N 34°13' E 134°59'611.8
2018-Feb-15 11:00N 34°19' E 134°59'5 9.8
2018-Feb-15 10:31N 34°23' E 135°03'510.4
2018-Feb-15 10:00N 34°26' E 135°08'4 7.6
2018-Feb-15 09:31N 34°28' E 135°11'510.1
2018-Feb-15 09:00N 34°33' E 135°14'4 8.8
2018-Feb-15 08:30N 34°37' E 135°17'4 8.1
2018-Feb-15 08:00N 34°40' E 135°14'1 1.6
2018-Feb-15 07:30N 34°40' E 135°13'0 0.0
2018-Feb-15 07:00N 34°40' E 135°13'0 0.0
2018-Feb-15 06:24N 34°40' E 135°13'0 0.0
2018-Feb-15 05:57N 34°40' E 135°13'0 0.0
2018-Feb-15 05:30N 34°40' E 135°13'0 0.0
2018-Feb-15 05:00N 34°40' E 135°13'0 0.0
2018-Feb-15 04:30N 34°40' E 135°13'0 0.0
2018-Feb-15 03:57N 34°40' E 135°13'0 0.0
2018-Feb-15 03:30N 34°40' E 135°13'0 0.0
2018-Feb-15 03:00N 34°40' E 135°13'0 0.0
2018-Feb-15 02:27N 34°40' E 135°13'0 0.0
2018-Feb-15 01:57N 34°40' E 135°13'0 0.0
2018-Feb-15 01:30N 34°40' E 135°13'0 0.0
2018-Feb-15 01:00N 34°40' E 135°13'0 0.0
2018-Feb-15 00:27N 34°40' E 135°13'0 0.0
2018-Feb-15 00:00N 34°40' E 135°13'0 0.0
2018-Feb-14 23:30N 34°40' E 135°13'0 0.0
2018-Feb-14 23:00N 34°40' E 135°13'0 0.0
2018-Feb-14 22:27N 34°40' E 135°13'0 0.0
2018-Feb-14 22:00N 34°40' E 135°13'0 0.0
2018-Feb-14 21:30N 34°40' E 135°13'0 0.0
2018-Feb-14 21:00N 34°40' E 135°13'0 0.0
2018-Feb-14 20:30N 34°40' E 135°13'0 0.0
2018-Feb-14 20:00N 34°40' E 135°13'0 0.0
2018-Feb-14 19:27N 34°40' E 135°13'0 0.0
2018-Feb-14 18:57N 34°40' E 135°13'0 0.0
2018-Feb-14 18:30N 34°40' E 135°13'0 0.0
2018-Feb-14 18:00N 34°40' E 135°13'0 0.0
2018-Feb-14 17:30N 34°40' E 135°13'0 0.0
2018-Feb-14 16:57N 34°40' E 135°13'0 0.0
2018-Feb-14 16:27N 34°40' E 135°13'0 0.0
2018-Feb-14 16:00N 34°40' E 135°13'0 0.0
2018-Feb-14 15:30N 34°40' E 135°13'0 0.0
2018-Feb-14 15:00N 34°40' E 135°13'0 0.0
2018-Feb-14 14:30N 34°40' E 135°13'0 0.0
2018-Feb-14 14:00N 34°40' E 135°13'0 0.0
2018-Feb-14 13:27N 34°40' E 135°13'0 0.0
2018-Feb-14 13:00N 34°40' E 135°13'0 0.0
2018-Feb-14 12:30N 34°40' E 135°13'0 0.0
2018-Feb-14 12:00N 34°40' E 135°13'0 0.0
2018-Feb-14 11:30N 34°40' E 135°13'0 0.0
2018-Feb-14 11:00N 34°40' E 135°13'0 0.0
2018-Feb-14 10:30N 34°40' E 135°13'0 0.0
2018-Feb-14 10:00N 34°40' E 135°13'0 0.0
2018-Feb-14 09:27N 34°40' E 135°13'0 0.0
2018-Feb-14 09:00N 34°40' E 135°13'0 0.0
2018-Feb-14 08:30N 34°40' E 135°13'0 0.0
2018-Feb-14 08:00N 34°40' E 135°13'0 0.0
2018-Feb-14 07:30N 34°40' E 135°13'0 0.0
2018-Feb-14 07:00N 34°40' E 135°13'0 0.0
2018-Feb-14 06:30N 34°40' E 135°13'0 0.0
2018-Feb-14 06:00N 34°40' E 135°13'0 0.0
2018-Feb-14 05:30N 34°40' E 135°13'0 0.0
2018-Feb-14 04:57N 34°40' E 135°13'0 0.0
2018-Feb-14 04:30N 34°40' E 135°13'0 0.0
2018-Feb-14 04:00N 34°40' E 135°13'0 0.0
2018-Feb-14 03:27N 34°40' E 135°13'0 0.0
2018-Feb-14 03:00N 34°40' E 135°13'0 0.0
2018-Feb-14 02:30N 34°40' E 135°13'0 0.0
2018-Feb-14 02:00N 34°40' E 135°13'0 0.0
2018-Feb-14 01:30N 34°40' E 135°13'0 0.0
2018-Feb-14 01:00N 34°40' E 135°13'0 0.0
2018-Feb-14 00:27N 34°40' E 135°13'0 0.0
2018-Feb-14 00:00N 34°40' E 135°13'0 0.0
2018-Feb-13 23:30N 34°40' E 135°13'0 0.0
2018-Feb-13 23:00N 34°40' E 135°13'0 0.0
2018-Feb-13 22:30N 34°40' E 135°13'0 0.0
2018-Feb-13 22:00N 34°40' E 135°13'0 0.0
2018-Feb-13 21:30N 34°40' E 135°13'0 0.0
2018-Feb-13 21:00N 34°40' E 135°13'0 0.0
2018-Feb-13 20:30N 34°40' E 135°13'0 0.0
2018-Feb-13 20:00N 34°40' E 135°13'0 0.0
2018-Feb-13 19:30N 34°40' E 135°13'0 0.0
2018-Feb-13 19:00N 34°40' E 135°13'0 0.0
2018-Feb-13 18:30N 34°40' E 135°13'0 0.0
2018-Feb-13 18:00N 34°40' E 135°13'0 0.0
2018-Feb-13 17:30N 34°40' E 135°13'0 0.0
2018-Feb-13 17:00N 34°40' E 135°13'0 0.0
2018-Feb-13 16:30N 34°40' E 135°13'0 0.0
2018-Feb-13 16:00N 34°40' E 135°13'0 0.0
2018-Feb-13 15:30N 34°40' E 135°13'0 0.0
2018-Feb-13 15:00N 34°40' E 135°13'0 0.0
2018-Feb-13 14:30N 34°40' E 135°13'0 0.0
2018-Feb-13 14:00N 34°40' E 135°13'0 0.0
2018-Feb-13 13:30N 34°40' E 135°13'0 0.0
2018-Feb-13 13:00N 34°40' E 135°13'0 0.0
2018-Feb-13 12:30N 34°40' E 135°13'0 0.0
2018-Feb-13 12:00N 34°40' E 135°13'0 0.0
2018-Feb-13 11:30N 34°40' E 135°13'0 0.0
2018-Feb-13 11:00N 34°40' E 135°13'0 0.0
2018-Feb-13 10:30N 34°40' E 135°13'0 0.0
2018-Feb-13 10:00N 34°40' E 135°13'0 0.0
2018-Feb-13 09:30N 34°40' E 135°13'0 0.0
2018-Feb-13 09:00N 34°40' E 135°13'0 0.0
2018-Feb-13 08:30N 34°40' E 135°13'0 0.0
2018-Feb-13 08:00N 34°40' E 135°13'0 0.0
2018-Feb-13 07:30N 34°40' E 135°13'0 0.0
2018-Feb-13 07:00N 34°40' E 135°13'0 0.0
2018-Feb-13 06:30N 34°40' E 135°13'0 0.0
2018-Feb-13 05:57N 34°40' E 135°13'0 0.0
2018-Feb-13 05:30N 34°40' E 135°13'0 0.0
2018-Feb-13 05:00N 34°40' E 135°13'0 0.0
2018-Feb-13 04:30N 34°40' E 135°13'0 0.0
2018-Feb-13 03:57N 34°40' E 135°13'0 0.0
2018-Feb-13 03:30N 34°40' E 135°13'0 0.0
2018-Feb-13 03:00N 34°40' E 135°13'0 0.0
2018-Feb-13 02:30N 34°40' E 135°13'0 0.0
2018-Feb-13 02:00N 34°40' E 135°13'0 0.0
2018-Feb-13 01:27N 34°40' E 135°13'0 0.0
2018-Feb-13 01:00N 34°40' E 135°13'0 0.0
2018-Feb-13 00:30N 34°40' E 135°13'0 0.0
2018-Feb-13 00:00N 34°40' E 135°13'0 0.0
2018-Feb-12 23:30N 34°40' E 135°13'0 0.0
2018-Feb-12 22:57N 34°40' E 135°13'0 0.0
2018-Feb-12 22:30N 34°40' E 135°13'0 0.0
2018-Feb-12 21:57N 34°40' E 135°13'0 0.0
2018-Feb-12 21:30N 34°40' E 135°13'0 0.0
2018-Feb-12 21:00N 34°40' E 135°13'0 0.0
2018-Feb-12 20:30N 34°40' E 135°13'0 0.0
2018-Feb-12 20:00N 34°40' E 135°13'0 0.0
2018-Feb-12 19:27N 34°40' E 135°13'0 0.0
2018-Feb-12 19:00N 34°40' E 135°13'0 0.0
2018-Feb-12 18:30N 34°40' E 135°13'0 0.0
2018-Feb-12 18:00N 34°40' E 135°13'0 0.0
2018-Feb-12 17:30N 34°40' E 135°13'0 0.0
2018-Feb-12 17:00N 34°40' E 135°13'0 0.0
2018-Feb-12 16:27N 34°40' E 135°13'0 0.0
2018-Feb-12 15:57N 34°40' E 135°13'0 0.0
2018-Feb-12 15:15N 34°40' E 135°13'0 0.0
2018-Feb-12 15:00N 34°40' E 135°13'0 0.0
2018-Feb-12 14:30N 34°40' E 135°13'0 0.0
2018-Feb-12 14:00N 34°40' E 135°13'0 0.0
2018-Feb-12 13:30N 34°40' E 135°13'0 0.0
2018-Feb-12 13:00N 34°40' E 135°13'0 0.0
2018-Feb-12 12:30N 34°40' E 135°13'0 0.0
2018-Feb-12 12:00N 34°40' E 135°13'0 0.0
2018-Feb-12 11:30N 34°40' E 135°13'0 0.0
2018-Feb-12 11:00N 34°40' E 135°13'0 0.0
2018-Feb-12 10:30N 34°40' E 135°13'0 0.0
2018-Feb-12 10:00N 34°40' E 135°13'0 0.0
2018-Feb-12 09:30N 34°40' E 135°13'0 0.0
2018-Feb-12 09:00N 34°40' E 135°13'0 0.0
2018-Feb-12 08:30N 34°40' E 135°13'0 0.0
2018-Feb-12 08:00N 34°40' E 135°13'0 0.0
2018-Feb-12 07:30N 34°40' E 135°13'0 0.0
2018-Feb-12 06:57N 34°40' E 135°13'0 0.0
2018-Feb-12 06:30N 34°40' E 135°13'0 0.0
2018-Feb-12 06:00N 34°40' E 135°13'0 0.0
2018-Feb-12 05:30N 34°40' E 135°13'0 0.0
2018-Feb-12 05:00N 34°40' E 135°13'0 0.0
2018-Feb-12 04:30N 34°40' E 135°13'0 0.0
2018-Feb-12 03:57N 34°40' E 135°13'0 0.0
2018-Feb-12 03:30N 34°40' E 135°13'0 0.0
2018-Feb-12 02:57N 34°40' E 135°13'0 0.0
2018-Feb-12 02:27N 34°40' E 135°13'0 0.1
2018-Feb-12 02:01N 34°40' E 135°14'1 2.0
2018-Feb-12 01:30N 34°40' E 135°15'3 5.5
2018-Feb-12 01:00N 34°38' E 135°16'2 3.7
2018-Feb-12 00:25N 34°37' E 135°14'0 0.1
2018-Feb-11 23:58N 34°37' E 135°13'0 0.1
2018-Feb-11 23:28N 34°37' E 135°13'0 0.1
2018-Feb-11 22:58N 34°37' E 135°14'0 0.0
2018-Feb-11 22:28N 34°37' E 135°14'0 0.0
2018-Feb-11 21:58N 34°37' E 135°14'0 0.1
2018-Feb-11 21:28N 34°37' E 135°14'0 0.0
2018-Feb-11 20:58N 34°37' E 135°14'0 0.0
2018-Feb-11 20:28N 34°37' E 135°14'0 0.1
2018-Feb-11 19:58N 34°37' E 135°13'0 0.0
2018-Feb-11 19:28N 34°37' E 135°13'0 0.0
2018-Feb-11 18:58N 34°37' E 135°13'0 0.0
2018-Feb-11 18:28N 34°37' E 135°13'0 0.1
2018-Feb-11 17:58N 34°37' E 135°14'0 0.1
2018-Feb-11 17:25N 34°37' E 135°13'0 0.0
2018-Feb-11 16:58N 34°37' E 135°13'0 0.0
2018-Feb-11 16:28N 34°37' E 135°13'0 0.1
2018-Feb-11 15:58N 34°37' E 135°14'0 0.0
2018-Feb-11 15:28N 34°37' E 135°14'0 0.0
2018-Feb-11 14:58N 34°37' E 135°14'0 0.0
2018-Feb-11 14:28N 34°37' E 135°14'0 0.1
2018-Feb-11 13:58N 34°37' E 135°13'0 0.0
2018-Feb-11 13:28N 34°37' E 135°13'0 0.1
2018-Feb-11 12:58N 34°37' E 135°14'0 0.0
2018-Feb-11 12:28N 34°37' E 135°14'0 0.0
2018-Feb-11 11:58N 34°37' E 135°14'0 0.1
2018-Feb-11 11:28N 34°37' E 135°13'0 0.1
2018-Feb-11 10:58N 34°37' E 135°14'0 0.1
2018-Feb-11 10:28N 34°37' E 135°13'0 0.0
2018-Feb-11 09:58N 34°37' E 135°13'0 0.0
2018-Feb-11 09:28N 34°37' E 135°13'0 0.1
2018-Feb-11 08:58N 34°37' E 135°14'0 0.0
2018-Feb-11 08:28N 34°37' E 135°14'0 0.0
2018-Feb-11 07:58N 34°37' E 135°14'0 0.1
2018-Feb-11 07:28N 34°37' E 135°13'0 0.0
2018-Feb-11 06:58N 34°37' E 135°13'0 0.0
2018-Feb-11 06:28N 34°37' E 135°13'0 0.1
2018-Feb-11 05:58N 34°37' E 135°14'0 0.0
2018-Feb-11 05:28N 34°37' E 135°14'0 0.0
2018-Feb-11 04:58N 34°37' E 135°14'0 0.0
2018-Feb-11 04:28N 34°37' E 135°14'0 0.0
2018-Feb-11 03:58N 34°37' E 135°14'0 0.0
2018-Feb-11 03:28N 34°37' E 135°14'0 0.0
2018-Feb-11 02:58N 34°37' E 135°14'0 0.0
2018-Feb-11 02:28N 34°37' E 135°14'0 0.0
2018-Feb-11 01:58N 34°37' E 135°14'0 0.0
2018-Feb-11 01:28N 34°37' E 135°14'0 0.0
2018-Feb-11 00:58N 34°37' E 135°14'0 0.0
2018-Feb-11 00:28N 34°37' E 135°14'0 0.0
2018-Feb-10 23:58N 34°37' E 135°14'0 0.1
2018-Feb-10 23:28N 34°37' E 135°13'1 1.4
2018-Feb-10 23:00N 34°37' E 135°14'2 3.7
2018-Feb-10 22:30N 34°35' E 135°16'5 9.2
2018-Feb-10 22:00N 34°31' E 135°13'510.6
2018-Feb-10 21:30N 34°27' E 135°09'611.4
2018-Feb-10 21:00N 34°23' E 135°04'611.7
2018-Feb-10 20:30N 34°19' E 134°60'612.0
2018-Feb-10 20:00N 34°13' E 134°59'612.5
2018-Feb-10 19:30N 34°06' E 134°59'612.3
2018-Feb-10 19:00N 34°00' E 134°57'612.1
2018-Feb-10 18:30N 33°55' E 134°55'611.7
2018-Feb-10 18:00N 33°49' E 134°53'611.7
2018-Feb-10 17:30N 33°44' E 134°49'1210.1
2018-Feb-10 16:20N 33°39' E 134°36'512.2
2018-Feb-10 15:53N 33°35' E 134°32'7810.1
2018-Feb-10 08:09N 32°55' E 133°12'62 8.6
2018-Feb-10 00:55N 33°15' E 132°01'612.9
2018-Feb-10 00:28N 33°20' E 131°57'511.7
2018-Feb-10 00:00N 33°18' E 131°51'5 9.7
2018-Feb-09 23:30N 33°17' E 131°45'5 9.1
2018-Feb-09 23:00N 33°17' E 131°40'1 4.8
2018-Feb-09 22:46N 33°16' E 131°40'  
Track history (hours):
 
Tides and Currents Weather Stations Pressure Air Temp Water Temp Dewpoint Dewpoint Depression Visibility Wind Speed Wind Dir Waves Ship Positions

Kobarid

Last reported at 2018-Feb-18 14:45 UTC. Time now 2018-Feb-20 13:38 UTC.
Position N 34°06' E 136°40'.

Length 116 m; draft 7.9 m.

Type: Cargo ship. MMSI: 357239000.

Date/timePositionNaut miles runAvg speedWind from/ knotsBaromVisibWave heightAir tempDewpointWater temp
2018-Feb-18 14:45N 34°06' E 136°40'311.6
2018-Feb-18 14:29N 34°08' E 136°44'3211.7
2018-Feb-18 11:46N 34°28' E 137°13'312.0
2018-Feb-18 11:30N 34°30' E 137°17'2911.1
2018-Feb-18 08:51N 34°34' E 137°52'410.6
2018-Feb-18 08:25N 34°33' E 137°57'10 9.9
2018-Feb-18 07:24N 34°32' E 138°09'4 9.5
2018-Feb-18 06:58N 34°31' E 138°14'610.2
2018-Feb-18 06:22N 34°32' E 138°22'411.0
2018-Feb-18 06:00N 34°32' E 138°26'611.8
2018-Feb-18 05:30N 34°31' E 138°34'611.6
2018-Feb-18 05:00N 34°32' E 138°41'611.6
2018-Feb-18 04:27N 34°32' E 138°48'511.2
2018-Feb-18 04:00N 34°32' E 138°54'710.7
2018-Feb-18 03:24N 34°36' E 139°01'410.9
2018-Feb-18 02:59N 34°39' E 139°04'711.5
2018-Feb-18 02:24N 34°45' E 139°09'611.6
2018-Feb-18 01:54N 34°50' E 139°13'511.1
2018-Feb-18 01:29N 34°54' E 139°16'510.0
2018-Feb-18 00:59N 34°57' E 139°20'510.1
2018-Feb-18 00:30N 34°59' E 139°26'510.1
2018-Feb-18 00:00N 35°01' E 139°32'510.8
2018-Feb-17 23:31N 35°03' E 139°38'5 9.9
2018-Feb-17 23:00N 35°05' E 139°43'510.2
2018-Feb-17 22:30N 35°10' E 139°45'510.1
2018-Feb-17 22:00N 35°15' E 139°46'5 9.9
2018-Feb-17 21:30N 35°19' E 139°43'5 9.6
2018-Feb-17 21:00N 35°24' E 139°43'4 8.1
2018-Feb-17 20:30N 35°28' E 139°42'0 0.6
2018-Feb-17 19:58N 35°28' E 139°42'0 0.0
2018-Feb-17 19:25N 35°28' E 139°42'0 0.0
2018-Feb-17 18:58N 35°28' E 139°42'0 0.0
2018-Feb-17 18:25N 35°28' E 139°42'0 0.0
2018-Feb-17 17:58N 35°28' E 139°42'0 0.0
2018-Feb-17 17:28N 35°28' E 139°42'0 0.0
2018-Feb-17 16:58N 35°28' E 139°42'0 0.0
2018-Feb-17 16:28N 35°28' E 139°42'0 0.0
2018-Feb-17 15:55N 35°28' E 139°42'0 0.0
2018-Feb-17 15:25N 35°28' E 139°42'0 0.0
2018-Feb-17 14:58N 35°28' E 139°42'0 0.0
2018-Feb-17 14:28N 35°28' E 139°42'0 0.0
2018-Feb-17 13:58N 35°28' E 139°42'0 0.0
2018-Feb-17 13:28N 35°28' E 139°42'0 0.0
2018-Feb-17 12:58N 35°28' E 139°42'0 0.0
2018-Feb-17 12:28N 35°28' E 139°42'0 0.0
2018-Feb-17 11:58N 35°28' E 139°42'0 0.0
2018-Feb-17 11:28N 35°28' E 139°42'0 0.0
2018-Feb-17 10:58N 35°28' E 139°42'0 0.0
2018-Feb-17 10:28N 35°28' E 139°42'0 0.0
2018-Feb-17 09:58N 35°28' E 139°42'0 0.0
2018-Feb-17 09:28N 35°28' E 139°42'0 0.0
2018-Feb-17 08:58N 35°28' E 139°42'0 0.0
2018-Feb-17 08:28N 35°28' E 139°42'0 0.0
2018-Feb-17 07:58N 35°28' E 139°42'0 0.0
2018-Feb-17 07:28N 35°28' E 139°42'0 0.0
2018-Feb-17 06:58N 35°28' E 139°42'0 0.0
2018-Feb-17 06:28N 35°28' E 139°42'0 0.0
2018-Feb-17 05:58N 35°28' E 139°42'0 0.0
2018-Feb-17 05:28N 35°28' E 139°42'0 0.0
2018-Feb-17 04:58N 35°28' E 139°42'0 0.0
2018-Feb-17 04:25N 35°28' E 139°42'0 0.0
2018-Feb-17 03:58N 35°28' E 139°42'0 0.0
2018-Feb-17 03:28N 35°28' E 139°42'0 0.0
2018-Feb-17 02:58N 35°28' E 139°42'0 0.0
2018-Feb-17 02:25N 35°28' E 139°42'0 0.0
2018-Feb-17 01:58N 35°28' E 139°42'0 0.0
2018-Feb-17 01:28N 35°28' E 139°42'0 0.0
2018-Feb-17 00:58N 35°28' E 139°42'0 0.0
2018-Feb-17 00:28N 35°28' E 139°42'0 0.0
2018-Feb-16 23:58N 35°28' E 139°42'0 0.0
2018-Feb-16 23:28N 35°28' E 139°42'0 0.0
2018-Feb-16 22:55N 35°28' E 139°42'0 0.0
2018-Feb-16 22:28N 35°28' E 139°42'1 1.4
2018-Feb-16 22:00N 35°28' E 139°42'2 3.1
2018-Feb-16 21:30N 35°26' E 139°43'0 0.0
2018-Feb-16 21:00N 35°26' E 139°43'0 0.1
2018-Feb-16 20:30N 35°26' E 139°43'0 0.1
2018-Feb-16 20:00N 35°26' E 139°43'0 0.0
2018-Feb-16 19:30N 35°26' E 139°43'0 0.1
2018-Feb-16 18:57N 35°26' E 139°43'0 0.0
2018-Feb-16 18:30N 35°26' E 139°43'0 0.0
2018-Feb-16 18:00N 35°26' E 139°43'0 0.1
2018-Feb-16 17:30N 35°26' E 139°43'0 0.0
2018-Feb-16 17:00N 35°26' E 139°43'0 0.0
2018-Feb-16 16:30N 35°26' E 139°43'0 0.1
2018-Feb-16 16:00N 35°26' E 139°43'0 0.1
2018-Feb-16 15:30N 35°26' E 139°43'0 0.6
2018-Feb-16 15:00N 35°26' E 139°43'2 4.9
2018-Feb-16 14:30N 35°23' E 139°43'4 8.1
2018-Feb-16 14:01N 35°19' E 139°43'5 9.5
2018-Feb-16 13:31N 35°16' E 139°47'4 8.1
2018-Feb-16 13:01N 35°12' E 139°47'5 9.8
2018-Feb-16 12:31N 35°07' E 139°46'510.2
2018-Feb-16 12:00N 35°02' E 139°43'611.2
2018-Feb-16 11:29N 34°57' E 139°41'611.5
2018-Feb-16 11:00N 34°51' E 139°38'611.3
2018-Feb-16 10:30N 34°47' E 139°34'811.9
2018-Feb-16 09:53N 34°40' E 139°30'511.9
2018-Feb-16 09:28N 34°37' E 139°25'612.7
2018-Feb-16 09:00N 34°36' E 139°18'612.9
2018-Feb-16 08:30N 34°35' E 139°11'713.4
2018-Feb-16 08:00N 34°33' E 139°03'713.0
2018-Feb-16 07:29N 34°31' E 138°55'812.7
2018-Feb-16 06:51N 34°30' E 138°45'613.3
2018-Feb-16 06:22N 34°29' E 138°38'513.3
2018-Feb-16 06:00N 34°27' E 138°32'813.2
2018-Feb-16 05:24N 34°25' E 138°23'2212.9
2018-Feb-16 03:42N 34°19' E 137°57'312.8
2018-Feb-16 03:28N 34°18' E 137°54'8112.2
2018-Feb-15 20:51N 33°43' E 136°26'5710.2
2018-Feb-15 15:18N 33°32' E 135°19'1212.9
2018-Feb-15 14:24N 33°38' E 135°07'613.0
2018-Feb-15 13:57N 33°43' E 135°03'613.3
2018-Feb-15 13:30N 33°48' E 134°59'612.7
2018-Feb-15 13:01N 33°54' E 134°57'713.2
2018-Feb-15 12:30N 34°00' E 134°58'713.1
2018-Feb-15 12:00N 34°07' E 134°58'612.8
2018-Feb-15 11:31N 34°13' E 134°59'611.8
2018-Feb-15 11:00N 34°19' E 134°59'5 9.8
2018-Feb-15 10:31N 34°23' E 135°03'510.4
2018-Feb-15 10:00N 34°26' E 135°08'4 7.6
2018-Feb-15 09:31N 34°28' E 135°11'510.1
2018-Feb-15 09:00N 34°33' E 135°14'4 8.8
2018-Feb-15 08:30N 34°37' E 135°17'4 8.1
2018-Feb-15 08:00N 34°40' E 135°14'1 1.6
2018-Feb-15 07:30N 34°40' E 135°13'0 0.0
2018-Feb-15 07:00N 34°40' E 135°13'0 0.0
2018-Feb-15 06:24N 34°40' E 135°13'0 0.0
2018-Feb-15 05:57N 34°40' E 135°13'0 0.0
2018-Feb-15 05:30N 34°40' E 135°13'0 0.0
2018-Feb-15 05:00N 34°40' E 135°13'0 0.0
2018-Feb-15 04:30N 34°40' E 135°13'0 0.0
2018-Feb-15 03:57N 34°40' E 135°13'0 0.0
2018-Feb-15 03:30N 34°40' E 135°13'0 0.0
2018-Feb-15 03:00N 34°40' E 135°13'0 0.0
2018-Feb-15 02:27N 34°40' E 135°13'0 0.0
2018-Feb-15 01:57N 34°40' E 135°13'0 0.0
2018-Feb-15 01:30N 34°40' E 135°13'0 0.0
2018-Feb-15 01:00N 34°40' E 135°13'0 0.0
2018-Feb-15 00:27N 34°40' E 135°13'0 0.0
2018-Feb-15 00:00N 34°40' E 135°13'0 0.0
2018-Feb-14 23:30N 34°40' E 135°13'0 0.0
2018-Feb-14 23:00N 34°40' E 135°13'0 0.0
2018-Feb-14 22:27N 34°40' E 135°13'0 0.0
2018-Feb-14 22:00N 34°40' E 135°13'0 0.0
2018-Feb-14 21:30N 34°40' E 135°13'0 0.0
2018-Feb-14 21:00N 34°40' E 135°13'0 0.0
2018-Feb-14 20:30N 34°40' E 135°13'0 0.0
2018-Feb-14 20:00N 34°40' E 135°13'0 0.0
2018-Feb-14 19:27N 34°40' E 135°13'0 0.0
2018-Feb-14 18:57N 34°40' E 135°13'0 0.0
2018-Feb-14 18:30N 34°40' E 135°13'0 0.0
2018-Feb-14 18:00N 34°40' E 135°13'0 0.0
2018-Feb-14 17:30N 34°40' E 135°13'0 0.0
2018-Feb-14 16:57N 34°40' E 135°13'0 0.0
2018-Feb-14 16:27N 34°40' E 135°13'0 0.0
2018-Feb-14 16:00N 34°40' E 135°13'0 0.0
2018-Feb-14 15:30N 34°40' E 135°13'0 0.0
2018-Feb-14 15:00N 34°40' E 135°13'0 0.0
2018-Feb-14 14:30N 34°40' E 135°13'0 0.0
2018-Feb-14 14:00N 34°40' E 135°13'0 0.0
2018-Feb-14 13:27N 34°40' E 135°13'0 0.0
2018-Feb-14 13:00N 34°40' E 135°13'0 0.0
2018-Feb-14 12:30N 34°40' E 135°13'0 0.0
2018-Feb-14 12:00N 34°40' E 135°13'0 0.0
2018-Feb-14 11:30N 34°40' E 135°13'0 0.0
2018-Feb-14 11:00N 34°40' E 135°13'0 0.0
2018-Feb-14 10:30N 34°40' E 135°13'0 0.0
2018-Feb-14 10:00N 34°40' E 135°13'0 0.0
2018-Feb-14 09:27N 34°40' E 135°13'0 0.0
2018-Feb-14 09:00N 34°40' E 135°13'0 0.0
2018-Feb-14 08:30N 34°40' E 135°13'0 0.0
2018-Feb-14 08:00N 34°40' E 135°13'0 0.0
2018-Feb-14 07:30N 34°40' E 135°13'0 0.0
2018-Feb-14 07:00N 34°40' E 135°13'0 0.0
2018-Feb-14 06:30N 34°40' E 135°13'0 0.0
2018-Feb-14 06:00N 34°40' E 135°13'0 0.0
2018-Feb-14 05:30N 34°40' E 135°13'0 0.0
2018-Feb-14 04:57N 34°40' E 135°13'0 0.0
2018-Feb-14 04:30N 34°40' E 135°13'0 0.0
2018-Feb-14 04:00N 34°40' E 135°13'0 0.0
2018-Feb-14 03:27N 34°40' E 135°13'0 0.0
2018-Feb-14 03:00N 34°40' E 135°13'0 0.0
2018-Feb-14 02:30N 34°40' E 135°13'0 0.0
2018-Feb-14 02:00N 34°40' E 135°13'0 0.0
2018-Feb-14 01:30N 34°40' E 135°13'0 0.0
2018-Feb-14 01:00N 34°40' E 135°13'0 0.0
2018-Feb-14 00:27N 34°40' E 135°13'0 0.0
2018-Feb-14 00:00N 34°40' E 135°13'0 0.0
2018-Feb-13 23:30N 34°40' E 135°13'0 0.0
2018-Feb-13 23:00N 34°40' E 135°13'0 0.0
2018-Feb-13 22:30N 34°40' E 135°13'0 0.0
2018-Feb-13 22:00N 34°40' E 135°13'0 0.0
2018-Feb-13 21:30N 34°40' E 135°13'0 0.0
2018-Feb-13 21:00N 34°40' E 135°13'0 0.0
2018-Feb-13 20:30N 34°40' E 135°13'0 0.0
2018-Feb-13 20:00N 34°40' E 135°13'0 0.0
2018-Feb-13 19:30N 34°40' E 135°13'0 0.0
2018-Feb-13 19:00N 34°40' E 135°13'0 0.0
2018-Feb-13 18:30N 34°40' E 135°13'0 0.0
2018-Feb-13 18:00N 34°40' E 135°13'0 0.0
2018-Feb-13 17:30N 34°40' E 135°13'0 0.0
2018-Feb-13 17:00N 34°40' E 135°13'0 0.0
2018-Feb-13 16:30N 34°40' E 135°13'0 0.0
2018-Feb-13 16:00N 34°40' E 135°13'0 0.0
2018-Feb-13 15:30N 34°40' E 135°13'0 0.0
2018-Feb-13 15:00N 34°40' E 135°13'0 0.0
2018-Feb-13 14:30N 34°40' E 135°13'0 0.0
2018-Feb-13 14:00N 34°40' E 135°13'0 0.0
2018-Feb-13 13:30N 34°40' E 135°13'0 0.0
2018-Feb-13 13:00N 34°40' E 135°13'0 0.0
2018-Feb-13 12:30N 34°40' E 135°13'0 0.0
2018-Feb-13 12:00N 34°40' E 135°13'0 0.0
2018-Feb-13 11:30N 34°40' E 135°13'0 0.0
2018-Feb-13 11:00N 34°40' E 135°13'0 0.0
2018-Feb-13 10:30N 34°40' E 135°13'0 0.0
2018-Feb-13 10:00N 34°40' E 135°13'0 0.0
2018-Feb-13 09:30N 34°40' E 135°13'0 0.0
2018-Feb-13 09:00N 34°40' E 135°13'0 0.0
2018-Feb-13 08:30N 34°40' E 135°13'0 0.0
2018-Feb-13 08:00N 34°40' E 135°13'0 0.0
2018-Feb-13 07:30N 34°40' E 135°13'0 0.0
2018-Feb-13 07:00N 34°40' E 135°13'0 0.0
2018-Feb-13 06:30N 34°40' E 135°13'0 0.0
2018-Feb-13 05:57N 34°40' E 135°13'0 0.0
2018-Feb-13 05:30N 34°40' E 135°13'0 0.0
2018-Feb-13 05:00N 34°40' E 135°13'0 0.0
2018-Feb-13 04:30N 34°40' E 135°13'0 0.0
2018-Feb-13 03:57N 34°40' E 135°13'0 0.0
2018-Feb-13 03:30N 34°40' E 135°13'0 0.0
2018-Feb-13 03:00N 34°40' E 135°13'0 0.0
2018-Feb-13 02:30N 34°40' E 135°13'0 0.0
2018-Feb-13 02:00N 34°40' E 135°13'0 0.0
2018-Feb-13 01:27N 34°40' E 135°13'0 0.0
2018-Feb-13 01:00N 34°40' E 135°13'0 0.0
2018-Feb-13 00:30N 34°40' E 135°13'0 0.0
2018-Feb-13 00:00N 34°40' E 135°13'0 0.0
2018-Feb-12 23:30N 34°40' E 135°13'0 0.0
2018-Feb-12 22:57N 34°40' E 135°13'0 0.0
2018-Feb-12 22:30N 34°40' E 135°13'0 0.0
2018-Feb-12 21:57N 34°40' E 135°13'0 0.0
2018-Feb-12 21:30N 34°40' E 135°13'0 0.0
2018-Feb-12 21:00N 34°40' E 135°13'0 0.0
2018-Feb-12 20:30N 34°40' E 135°13'0 0.0
2018-Feb-12 20:00N 34°40' E 135°13'0 0.0
2018-Feb-12 19:27N 34°40' E 135°13'0 0.0
2018-Feb-12 19:00N 34°40' E 135°13'0 0.0
2018-Feb-12 18:30N 34°40' E 135°13'0 0.0
2018-Feb-12 18:00N 34°40' E 135°13'0 0.0
2018-Feb-12 17:30N 34°40' E 135°13'0 0.0
2018-Feb-12 17:00N 34°40' E 135°13'0 0.0
2018-Feb-12 16:27N 34°40' E 135°13'0 0.0
2018-Feb-12 15:57N 34°40' E 135°13'0 0.0
2018-Feb-12 15:15N 34°40' E 135°13'0 0.0
2018-Feb-12 15:00N 34°40' E 135°13'0 0.0
2018-Feb-12 14:30N 34°40' E 135°13'0 0.0
2018-Feb-12 14:00N 34°40' E 135°13'0 0.0
2018-Feb-12 13:30N 34°40' E 135°13'0 0.0
2018-Feb-12 13:00N 34°40' E 135°13'0 0.0
2018-Feb-12 12:30N 34°40' E 135°13'0 0.0
2018-Feb-12 12:00N 34°40' E 135°13'0 0.0
2018-Feb-12 11:30N 34°40' E 135°13'0 0.0
2018-Feb-12 11:00N 34°40' E 135°13'0 0.0
2018-Feb-12 10:30N 34°40' E 135°13'0 0.0
2018-Feb-12 10:00N 34°40' E 135°13'0 0.0
2018-Feb-12 09:30N 34°40' E 135°13'0 0.0
2018-Feb-12 09:00N 34°40' E 135°13'0 0.0
2018-Feb-12 08:30N 34°40' E 135°13'0 0.0
2018-Feb-12 08:00N 34°40' E 135°13'0 0.0
2018-Feb-12 07:30N 34°40' E 135°13'0 0.0
2018-Feb-12 06:57N 34°40' E 135°13'0 0.0
2018-Feb-12 06:30N 34°40' E 135°13'0 0.0
2018-Feb-12 06:00N 34°40' E 135°13'0 0.0
2018-Feb-12 05:30N 34°40' E 135°13'0 0.0
2018-Feb-12 05:00N 34°40' E 135°13'0 0.0
2018-Feb-12 04:30N 34°40' E 135°13'0 0.0
2018-Feb-12 03:57N 34°40' E 135°13'0 0.0
2018-Feb-12 03:30N 34°40' E 135°13'0 0.0
2018-Feb-12 02:57N 34°40' E 135°13'0 0.0
2018-Feb-12 02:27N 34°40' E 135°13'0 0.1
2018-Feb-12 02:01N 34°40' E 135°14'1 2.0
2018-Feb-12 01:30N 34°40' E 135°15'3 5.5
2018-Feb-12 01:00N 34°38' E 135°16'2 3.7
2018-Feb-12 00:25N 34°37' E 135°14'0 0.1
2018-Feb-11 23:58N 34°37' E 135°13'0 0.1
2018-Feb-11 23:28N 34°37' E 135°13'0 0.1
2018-Feb-11 22:58N 34°37' E 135°14'0 0.0
2018-Feb-11 22:28N 34°37' E 135°14'0 0.0
2018-Feb-11 21:58N 34°37' E 135°14'0 0.1
2018-Feb-11 21:28N 34°37' E 135°14'0 0.0
2018-Feb-11 20:58N 34°37' E 135°14'0 0.0
2018-Feb-11 20:28N 34°37' E 135°14'0 0.1
2018-Feb-11 19:58N 34°37' E 135°13'0 0.0
2018-Feb-11 19:28N 34°37' E 135°13'0 0.0
2018-Feb-11 18:58N 34°37' E 135°13'0 0.0
2018-Feb-11 18:28N 34°37' E 135°13'0 0.1
2018-Feb-11 17:58N 34°37' E 135°14'0 0.1
2018-Feb-11 17:25N 34°37' E 135°13'0 0.0
2018-Feb-11 16:58N 34°37' E 135°13'0 0.0
2018-Feb-11 16:28N 34°37' E 135°13'0 0.1
2018-Feb-11 15:58N 34°37' E 135°14'0 0.0
2018-Feb-11 15:28N 34°37' E 135°14'0 0.0
2018-Feb-11 14:58N 34°37' E 135°14'0 0.0
2018-Feb-11 14:28N 34°37' E 135°14'0 0.1
2018-Feb-11 13:58N 34°37' E 135°13'0 0.0
2018-Feb-11 13:28N 34°37' E 135°13'0 0.1
2018-Feb-11 12:58N 34°37' E 135°14'0 0.0
2018-Feb-11 12:28N 34°37' E 135°14'0 0.0
2018-Feb-11 11:58N 34°37' E 135°14'0 0.1
2018-Feb-11 11:28N 34°37' E 135°13'0 0.1
2018-Feb-11 10:58N 34°37' E 135°14'0 0.1
2018-Feb-11 10:28N 34°37' E 135°13'0 0.0
2018-Feb-11 09:58N 34°37' E 135°13'0 0.0
2018-Feb-11 09:28N 34°37' E 135°13'0 0.1
2018-Feb-11 08:58N 34°37' E 135°14'0 0.0
2018-Feb-11 08:28N 34°37' E 135°14'0 0.0
2018-Feb-11 07:58N 34°37' E 135°14'0 0.1
2018-Feb-11 07:28N 34°37' E 135°13'0 0.0
2018-Feb-11 06:58N 34°37' E 135°13'0 0.0
2018-Feb-11 06:28N 34°37' E 135°13'0 0.1
2018-Feb-11 05:58N 34°37' E 135°14'0 0.0
2018-Feb-11 05:28N 34°37' E 135°14'0 0.0
2018-Feb-11 04:58N 34°37' E 135°14'0 0.0
2018-Feb-11 04:28N 34°37' E 135°14'0 0.0
2018-Feb-11 03:58N 34°37' E 135°14'0 0.0
2018-Feb-11 03:28N 34°37' E 135°14'0 0.0
2018-Feb-11 02:58N 34°37' E 135°14'0 0.0
2018-Feb-11 02:28N 34°37' E 135°14'0 0.0
2018-Feb-11 01:58N 34°37' E 135°14'0 0.0
2018-Feb-11 01:28N 34°37' E 135°14'0 0.0
2018-Feb-11 00:58N 34°37' E 135°14'0 0.0
2018-Feb-11 00:28N 34°37' E 135°14'0 0.0
2018-Feb-10 23:58N 34°37' E 135°14'0 0.1
2018-Feb-10 23:28N 34°37' E 135°13'1 1.4
2018-Feb-10 23:00N 34°37' E 135°14'2 3.7
2018-Feb-10 22:30N 34°35' E 135°16'5 9.2
2018-Feb-10 22:00N 34°31' E 135°13'510.6
2018-Feb-10 21:30N 34°27' E 135°09'611.4
2018-Feb-10 21:00N 34°23' E 135°04'611.7
2018-Feb-10 20:30N 34°19' E 134°60'612.0
2018-Feb-10 20:00N 34°13' E 134°59'612.5
2018-Feb-10 19:30N 34°06' E 134°59'612.3
2018-Feb-10 19:00N 34°00' E 134°57'612.1
2018-Feb-10 18:30N 33°55' E 134°55'611.7
2018-Feb-10 18:00N 33°49' E 134°53'611.7
2018-Feb-10 17:30N 33°44' E 134°49'1210.1
2018-Feb-10 16:20N 33°39' E 134°36'512.2
2018-Feb-10 15:53N 33°35' E 134°32'7810.1
2018-Feb-10 08:09N 32°55' E 133°12'62 8.6
2018-Feb-10 00:55N 33°15' E 132°01'612.9
2018-Feb-10 00:28N 33°20' E 131°57'511.7
2018-Feb-10 00:00N 33°18' E 131°51'5 9.7
2018-Feb-09 23:30N 33°17' E 131°45'5 9.1
2018-Feb-09 23:00N 33°17' E 131°40'1 4.8
2018-Feb-09 22:46N 33°16' E 131°40'  

Dump ship's entire track history